• Join FlightAware (Why Join?)
  • Login
  • US Flag 
08:29PM EDT


 

Airport Tracker/Info


-or-


 

Live Flight TrackerFlight Track Log ✈ N546LM ✈ 17-Jun-2013 ✈ PAFA / FAI - PAGA / GAL

Flight Track Log - Related Links

Times and Time Zones

All times are in EDT time to prevent confusion due to time zone crossing. See the N546LM flight status page for this flight to view local times or setup timezone preferences in your user account.

Time Position Orientation Groundspeed Altitude Reporting Facility
EDT Latitude Longitude Course Direction KTS MPH feet Rate Location/Type
01:29AM 64.8500 -147.9667 270° West 200 230 4,300  Level Anchorage Center
01:30AM 64.8500 -148.1000 270° West 200 230 6,200 1,740 Climbing Anchorage Center
01:31AM 64.8500 -148.2333 270° West 200 230 7,900 1,680 Climbing Anchorage Center
01:32AM 64.8500 -148.3667 270° West 210 242 9,600 1,560 Climbing Anchorage Center
01:33AM 64.8500 -148.4833 270° West 220 253 11,100 1,500 Climbing Anchorage Center
01:34AM 64.8667 -148.6333 285° West 220 253 12,700 1,380 Climbing Anchorage Center
01:35AM 64.8667 -148.7667 270° West 220 253 13,900 1,260 Climbing Anchorage Center
01:36AM 64.8667 -148.9167 270° West 230 265 15,300 1,260 Climbing Anchorage Center
01:37AM 64.8667 -149.0833 270° West 240 276 16,500 1,140 Climbing Anchorage Center
01:38AM 64.8667 -149.2333 270° West 230 265 17,600 900 Climbing Anchorage Center
01:39AM 64.8667 -149.3833 270° West 240 276 18,400 840 Climbing Anchorage Center
01:40AM 64.8667 -149.5333 270° West 230 265 19,300 840 Climbing Anchorage Center
01:41AM 64.8667 -149.7000 270° West 240 276 20,100 780 Climbing Anchorage Center
01:42AM 64.8667 -149.8500 270° West 210 242 20,900 660 Climbing Anchorage Center
01:43AM 64.8667 -150.0333 270° West 250 288 21,500 540 Climbing Anchorage Center
01:44AM 64.8667 -150.1833 270° West 240 276 22,000 240 Climbing Anchorage Center
01:45AM 64.8667 -150.3500 270° West 270 311 22,000  Level Anchorage Center
01:46AM 64.8667 -150.5167 270° West 260 299 22,000  Level Anchorage Center
01:47AM 64.8667 -150.7000 270° West 270 311 22,000  Level Anchorage Center
01:48AM 64.8667 -150.8833 270° West 260 299 22,000  Level Anchorage Center
01:49AM 64.8667 -151.0500 270° West 270 311 22,000  Level Anchorage Center
01:50AM 64.8667 -151.2333 270° West 270 311 22,000  Level Anchorage Center
01:51AM 64.8667 -151.4167 270° West 270 311 22,000  Level Anchorage Center
01:52AM 64.8667 -151.5833 270° West 270 311 22,000  Level Anchorage Center
01:53AM 64.8667 -151.8000 270° West 260 299 22,000  Level Anchorage Center
01:54AM 64.8667 -151.9833 270° West 280 322 22,000  Level Anchorage Center
01:55AM 64.8667 -152.1500 270° West 270 311 22,000  Level Anchorage Center
01:56AM 64.8500 -152.3167 257° West 270 311 22,000  Level Anchorage Center
01:57AM 64.8500 -152.5000 270° West 270 311 22,000  Level Anchorage Center
01:58AM 64.8500 -152.6833 270° West 280 322 22,000  Level Anchorage Center
01:59AM 64.8500 -152.8500 270° West 270 311 22,000  Level Anchorage Center
02:00AM 64.8500 -153.0333 270° West 270 311 22,000  Level Anchorage Center
02:01AM 64.8500 -153.2167 270° West 290 334 22,000  Level Anchorage Center
02:02AM 64.8333 -153.4000 258° West 270 311 22,000  Level Anchorage Center
02:03AM 64.8333 -153.5833 270° West 270 311 22,000  Level Anchorage Center
02:04AM 64.8333 -153.7500 270° West 280 322 22,000  Level Anchorage Center
02:05AM 64.8333 -153.9333 270° West 270 311 22,000  Level Anchorage Center
02:06AM 64.8167 -154.1167 258° West 270 311 22,000  Level Anchorage Center
02:07AM 64.8167 -154.3000 270° West 280 322 22,000  Level Anchorage Center
02:08AM 64.8167 -154.4833 270° West 270 311 22,000  Level Anchorage Center
02:09AM 64.8000 -154.6500 257° West 270 311 22,000  Level Anchorage Center
02:10AM 64.8000 -154.8500 270° West 280 322 22,000  Level Anchorage Center
02:11AM 64.8000 -155.0167 270° West 280 322 22,000 -60 Level Anchorage Center
02:12AM 64.8000 -155.2000 270° West 280 322 21,900 -720 Descending Anchorage Center
02:13AM 64.7833 -155.4000 259° West 310 357 20,600 -1,320 Descending Anchorage Center
02:14AM 64.7833 -155.6000 270° West 300 345 19,300 -1,320 Descending Anchorage Center
02:15AM 64.7667 -155.8000 259° West 280 322 18,000 -1,320 Descending Anchorage Center
02:17AM 64.7633 -156.0488 265° West  Level FlightAware Approximate
02:24AM 64.7333 -156.9333 270° West  Level FlightAware Approximate
02:25AM 64.7362 -156.9374 270° West  Level Estimated
02:26AM 64.7333 -156.9333 270° West  Level FlightAware Approximate
02:27AM 64.7362 -156.9374 270° West  Level Estimated
02:28AM 64.7333 -156.9333 270° West  Level FlightAware Approximate
02:29AM 64.7362 -156.9374 270° West  Level Estimated
02:30AM 64.7333 -156.9333 270° West  Level FlightAware Approximate
02:31AM 64.7362 -156.9374 270° West  Level Estimated
02:32AM 64.7333 -156.9333 270° West  Level FlightAware Approximate
02:33AM 64.7362 -156.9374 270° West  Level Estimated
02:34AM 64.7333 -156.9333 270° West  Level FlightAware Approximate
02:35AM 64.7362 -156.9374 270° West  Level Estimated
02:36AM 64.7333 -156.9333 270° West  Level FlightAware Approximate
02:37AM 64.7362 -156.9374 270° West  Level Estimated
02:38AM 64.7333 -156.9333 270° West  Level FlightAware Approximate